Flight Track Log - Related Links

Times and Time Zones

All times are in EDT time to prevent confusion due to time zone crossing. See the FWK988 flight status page for this flight to view local times or setup timezone preferences in your user account.

Time Position Orientation Groundspeed Altitude Reporting Facility
EDT Latitude Longitude Course Direction KTS MPH feet Rate Location/Type
Thu 03:39:54 PM 38.7500 -77.5833 218° Southwest 239 275 2,000  Level Potomac TRACON
Thu 03:40:55 PM 38.7167 -77.6500 237° Southwest 260 299 3,600 2,706 Climbing Potomac TRACON
Thu 03:42:27 PM 38.6214 -77.7228 211° Southwest 271 312 8,900 3,059 Climbing Washington Center
Thu 03:43:28 PM 38.5478 -77.7658 205° Southwest 272 313 11,400 2,066 Climbing Washington Center
Thu 03:44:29 PM 38.4631 -77.8350 213° Southwest 321 369 13,100 1,686 Climbing Washington Center
Thu 03:45:00 PM 38.0670 -77.8484 218° Southwest  Level Estimated
Thu 03:45:29 PM 38.3911 -77.8883 210° Southwest 356 410 14,800  Level Washington Center
Thu 03:46:27 PM 38.2792 -77.9669 209° Southwest 386 444 17,400 2,420 Climbing Washington Center
Thu 03:47:28 PM 38.1839 -78.0353 209° Southwest 386 444 19,600 1,934 Climbing Washington Center
Thu 03:48:28 PM 38.0886 -78.1008 208° Southwest 386 444 21,300 1,488 Climbing Washington Center
Thu 03:49:29 PM 37.9933 -78.1739 211° Southwest 396 456 22,600 1,289 Climbing Washington Center
Thu 03:50:29 PM 37.9017 -78.2631 218° Southwest 408 470 23,900 1,322 Climbing Washington Center
Thu 03:51:27 PM 37.8078 -78.3542 217° Southwest 420 483 25,200 1,311 Climbing Washington Center
Thu 03:52:28 PM 37.7097 -78.4478 217° Southwest 432 497 26,500 1,240 Climbing Washington Center
Thu 03:53:28 PM 37.6094 -78.5411 216° Southwest 444 511 27,700 1,462 Climbing Washington Center
Thu 03:54:27 PM 37.5217 -78.6242 217° Southwest 449 517 29,400 1,765 Climbing Washington Center
Thu 03:55:27 PM 37.4236 -78.7142 216° Southwest 444 511 31,200 1,289 Climbing Washington Center
Thu 03:56:28 PM 37.3272 -78.8044 217° Southwest 444 511 32,000 397 Climbing Washington Center
Thu 03:57:28 PM 37.2225 -78.8992 216° Southwest 454 522 32,000 200 Level Washington Center
Thu 03:58:28 PM 37.1025 -79.0111 217° Southwest 479 551 32,400 496 Climbing Washington Center
Thu 03:59:29 PM 36.9953 -79.1078 216° Southwest 485 558 33,000 807 Climbing Washington Center
Thu 04:00:27 PM 36.8903 -79.2069 217° Southwest 485 558 34,000 1,160 Climbing Washington Center
Thu 04:01:28 PM 36.7892 -79.3008 217° Southwest 479 551 35,300 984 Climbing Washington Center
Thu 04:02:29 PM 36.6861 -79.3942 216° Southwest 466 536 36,000 783 Climbing Washington Center
Thu 04:04:55 PM 36.4414 -79.6128 216° Southwest 441 507 38,000 583 Climbing Atlanta Center
Thu 04:05:55 PM 36.3425 -79.7033 216° Southwest 441 507 38,000  Level Atlanta Center
Thu 04:06:55 PM 36.2414 -79.7936 216° Southwest 447 514 38,000  Level Atlanta Center
Thu 04:07:55 PM 36.1425 -79.8864 217° Southwest 452 520 38,000  Level Atlanta Center
Thu 04:08:55 PM 36.0492 -79.9656 214° Southwest 452 520 38,000  Level Atlanta Center
Thu 04:09:55 PM 35.9344 -80.0328 205° Southwest 452 520 38,000 150 Level Atlanta Center
Thu 04:10:55 PM 35.8153 -80.0875 200° South 458 527 38,300 900 Climbing Atlanta Center
Thu 04:11:55 PM 35.6881 -80.1497 202° Southwest 458 527 39,800 850 Climbing Atlanta Center
Thu 04:12:55 PM 35.5750 -80.2089 203° Southwest 446 513 40,000 100 Climbing Atlanta Center
Thu 04:13:55 PM 35.4619 -80.2625 201° Southwest 446 513 40,000  Level Atlanta Center
Thu 04:14:55 PM 35.3469 -80.3186 202° Southwest 446 513 40,000  Level Atlanta Center
Thu 04:15:55 PM 35.2442 -80.3717 203° Southwest 451 519 40,000  Level Atlanta Center
Thu 04:18:17 PM 34.9694 -80.5011 201° Southwest 457 526 40,000  Level Jacksonville Center
Thu 04:19:17 PM 34.8517 -80.5603 202° Southwest 457 526 40,000  Level Jacksonville Center
Thu 04:20:16 PM 34.7442 -80.6186 204° Southwest 447 514 40,000  Level Jacksonville Center
Thu 04:21:17 PM 34.6264 -80.6747 201° Southwest 442 509 40,000  Level Jacksonville Center
Thu 04:22:16 PM 34.5022 -80.7333 201° Southwest 473 544 40,000  Level Jacksonville Center
Thu 04:23:16 PM 34.3739 -80.7944 201° Southwest 461 531 40,000  Level Jacksonville Center
Thu 04:24:17 PM 34.2747 -80.8419 202° Southwest 440 506 40,000  Level Jacksonville Center
Thu 04:25:16 PM 34.1586 -80.8975 202° Southwest 440 506 40,000  Level Jacksonville Center
Thu 04:26:16 PM 34.0428 -80.9528 202° Southwest 440 506 40,000  Level Jacksonville Center
Thu 04:27:17 PM 33.9267 -81.0078 201° Southwest 451 519 40,000  Level Jacksonville Center
Thu 04:28:16 PM 33.7981 -81.0656 200° South 446 513 40,000  Level Jacksonville Center
Thu 04:29:16 PM 33.6903 -81.1203 203° Southwest 453 521 40,000  Level Jacksonville Center
Thu 04:30:17 PM 33.5742 -81.1750 201° Southwest 453 521 40,000  Level Jacksonville Center
Thu 04:31:16 PM 33.4561 -81.2269 200° South 448 516 40,000  Level Jacksonville Center
Thu 04:32:16 PM 33.3400 -81.2839 202° Southwest 448 516 40,000  Level Jacksonville Center
Thu 04:33:16 PM 33.2236 -81.3283 198° South 448 516 40,000  Level Jacksonville Center
Thu 04:34:16 PM 33.0967 -81.3628 193° South 448 516 40,000  Level Jacksonville Center
Thu 04:35:16 PM 32.9739 -81.3969 193° South 454 522 40,000  Level Jacksonville Center
Thu 04:36:17 PM 32.8511 -81.4311 193° South 454 522 40,000  Level Jacksonville Center
Thu 04:37:16 PM 32.7283 -81.4653 193° South 454 522 40,000  Level Jacksonville Center
Thu 04:38:16 PM 32.5953 -81.5019 193° South 446 513 40,000  Level Jacksonville Center
Thu 04:39:17 PM 32.4725 -81.5358 193° South 451 519 40,000  Level Jacksonville Center
Thu 04:40:16 PM 32.3497 -81.5719 194° South 451 519 40,000  Level Jacksonville Center
Thu 04:41:16 PM 32.2267 -81.6033 192° South 451 519 40,000  Level Jacksonville Center
Thu 04:42:17 PM 32.1164 -81.6367 194° South 451 519 40,000  Level Jacksonville Center
Thu 04:43:17 PM 31.9831 -81.6681 191° South 451 519 40,000  Level Jacksonville Center
Thu 04:44:16 PM 31.8603 -81.7014 193° South 451 519 40,000  Level Jacksonville Center
Thu 04:45:17 PM 31.7375 -81.7347 193° South 453 521 40,000  Level Jacksonville Center
Thu 04:46:16 PM 31.6144 -81.7678 193° South 453 521 40,000  Level Jacksonville Center
Thu 04:47:17 PM 31.5042 -81.7961 192° South 453 521 40,000  Level Jacksonville Center
Thu 04:48:17 PM 31.3708 -81.8317 193° South 453 521 40,000  Level Jacksonville Center
Thu 04:49:16 PM 31.2625 -81.8619 193° South 448 516 40,000  Level Jacksonville Center
Thu 04:50:16 PM 31.1394 -81.8975 194° South 453 521 40,000  Level Jacksonville Center
Thu 04:51:17 PM 31.0167 -81.9278 192° South 453 521 40,000  Level Jacksonville Center
Thu 04:52:17 PM 30.8936 -81.9606 193° South 453 521 40,000  Level Jacksonville Center
Thu 04:53:17 PM 30.7728 -81.9931 193° South 453 521 40,000  Level Jacksonville Center
Thu 04:54:17 PM 30.6353 -82.0306 193° South 453 521 40,000  Level Jacksonville Center
Thu 04:55:17 PM 30.5228 -82.0533 190° South 448 516 40,000  Level Jacksonville Center
Thu 04:56:16 PM 30.4017 -82.0858 193° South 448 516 40,000 -100 Level Jacksonville Center
Thu 04:57:17 PM 30.2767 -82.1156 192° South 448 516 39,800 -1,200 Descending Jacksonville Center
Thu 04:58:16 PM 30.1517 -82.1503 194° South 453 521 37,600 -2,420 Descending Jacksonville Center
Thu 04:59:16 PM 30.0161 -82.1897 194° South 453 521 35,000 -2,479 Descending Jacksonville Center
Thu 05:00:17 PM 29.8911 -82.2242 193° South 453 521 32,600 -2,400 Descending Jacksonville Center
Thu 05:01:16 PM 29.7658 -82.2561 192° South 453 521 30,200 -2,350 Descending Jacksonville Center
Thu 05:02:17 PM 29.6469 -82.2642 183° South 459 528 27,900 -2,231 Descending Jacksonville Center
Thu 05:03:17 PM 29.5194 -82.2458 173° South 464 534 25,700 -2,067 Descending Jacksonville Center
Thu 05:04:16 PM 29.3881 -82.2275 173° South 469 540 23,800 -1,800 Descending Jacksonville Center
Thu 05:05:17 PM 29.2564 -82.2069 172° South 477 549 22,100 -1,686 Descending Jacksonville Center
Thu 05:06:17 PM 29.1289 -82.1867 172° South 477 549 20,400 -1,950 Descending Jacksonville Center
Thu 05:07:17 PM 28.9953 -82.1686 173° South 458 527 18,200 -2,200 Descending Jacksonville Center
Thu 05:08:17 PM 28.8886 -82.1528 173° South 445 512 16,000 -1,968 Descending Jacksonville Center
Thu 05:10:23 PM 28.6333 -82.1333 176° South 403 464 12,100 -1,290 Descending Tampa TRACON
Thu 05:11:23 PM 28.5333 -82.1333 180° South 403 464 12,000 -50 Descending Tampa TRACON
Thu 05:12:23 PM 28.4167 -82.1500 187° South 403 464 12,000  Level Tampa TRACON
Thu 05:13:23 PM 28.3000 -82.1667 187° South 404 465 12,000 -211 Level Tampa TRACON
Thu 05:14:17 PM 28.2000 -82.1833 188° South 372 428 11,600 -1,053 Descending Tampa TRACON
Thu 05:15:17 PM 28.1167 -82.1833 180° South 312 359 10,000 -1,500 Descending Tampa TRACON
Thu 05:16:17 PM 28.0333 -82.2000 190° South 280 322 8,600 -1,450 Descending Tampa TRACON
Thu 05:17:17 PM 27.9500 -82.2000 180° South 287 330 7,100 -1,300 Descending Tampa TRACON
Thu 05:18:17 PM 27.8833 -82.2167 192° South 276 318 6,000 -550 Descending Tampa TRACON
Thu 05:19:17 PM 27.8000 -82.2500 199° South 285 328 6,000  Level Tampa TRACON
Thu 05:20:17 PM 27.7333 -82.2833 204° Southwest 280 322 6,000  Level Tampa TRACON
Thu 05:21:17 PM 27.6667 -82.3167 204° Southwest 275 316 6,000 -545 Level Tampa TRACON
Thu 05:22:18 PM 27.5833 -82.3333 190° South 286 329 4,900 -1,095 Descending Tampa TRACON
Thu 05:23:23 PM 27.5000 -82.3500 190° South 279 321 3,700 -958 Descending Tampa TRACON
Thu 05:24:17 PM 27.4333 -82.3667 193° South 253 291 3,000 -887 Descending Tampa TRACON
Thu 05:25:18 PM 27.3667 -82.3833 193° South 250 288 2,000 -472 Descending Tampa TRACON
Thu 05:26:24 PM 27.3333 -82.4500 241° Southwest 176 203 2,000 -350 Level Tampa TRACON
Thu 05:27:18 PM 27.3333 -82.4833 270° West 141 162 1,300 -684 Descending Tampa TRACON
Thu 05:28:18 PM 27.3667 -82.5167 318° Northwest 120 138 700 -600 Descending Tampa TRACON
Thu 05:30:00 PM 27.3954 -82.5544 311° West  Level Estimated
Thu 05:37:00 PM 27.3954 -82.5544 13° North  Level Estimated
Thu 05:38:00 PM 27.3954 -82.5544 13° North  Level Estimated

Login

Don't have an account? Register now (free) for customized features, flight alerts, and more!